LFLBLFLC

Guest
Details From LFLB - Aix-Les-Bains
To LFLC - Clermont-Ferrand_Auvergne
Flight Number -
Tags decoded
Created
Modified
Stats Distance 115 nm / 213 km
Max Altitude 0 ft / 0 m
Waypoints 4
Social Downloads 2
Likes 0
Share VATSIM

Download

Looking for another format? Having issues loading an existing format? Contact us
Advertisement - Login to hide

Notes

Requested: LFLB MEBAK Q20 SOPAD LFLC

Route

LFLB MEBAK Q20 SOPAD LFLC

ID Type Via Altitude Latitude Longitude Leg Dist Tot Dist Heading (true) Name
O LFLB APT - 0 ft / 0 m 45.63623˚ 5.88090˚ - 0 nm - Aix-Les-Bains
MEBAK FIX - 0 ft / 0 m 45.70806˚ 4.64889˚ 51 nm 51 nm 275° / 274° -
SOPAD FIX Q20 (AWY-LO) 0 ft / 0 m 45.65333˚ 4.20556˚ 18 nm 70 nm 260° / 260° -
O LFLC APT - 0 ft / 0 m 45.78671˚ 3.16997˚ 44 nm 114 nm 281° / 280° Clermont-Ferrand_Auvergne

Altitude Profile

Advertisement - Login to hide

LFLB

Details ICAO LFLB (CMF)
Name Aix-Les-Bains
Region France
Timezone Europe/Paris (UTC+1.0)
Stats Elevation 779 ft / 237 m (AMSL)
Location 45.636234° 5.880898°
Runways 2
Magnetic Variation 1.689° E

METAR

LFLB 130930Z AUTO 17012KT CAVOK 03/M01 Q1021 NOSIG

Decode

TAF

TAF AMD LFLB 130729Z 1307/1406 18008KT 9999 FEW015 BECMG 1313/1315 18015G25KT -RA BKN040 OVC060 TEMPO 1320/1323 4000 RA BKN010 OVC040 PROB30 TEMPO 1402/1404 27020G40KT

Decode

Departure Runways

ID Width Length Bearing (true) Bearing (mag) Surface Threshold Offset Overrun Length
18 148 ft / 45 m 5,452 ft / 1,662 m 176.72° 175.03° Asphalt 26 ft / 8 m 774 ft / 236 m
18L 197 ft / 60 m 2,309 ft / 704 m 176.70° 175.01° Grass 0 ft / 0 m 0 ft / 0 m
36 148 ft / 45 m 5,452 ft / 1,662 m 356.72° 355.03° Asphalt 23 ft / 7 m 456 ft / 139 m
36R 197 ft / 60 m 2,309 ft / 704 m 356.70° 355.01° Grass 315 ft / 96 m 0 ft / 0 m

LFLC

Details ICAO LFLC (CFE)
Name Clermont-Ferrand_Auvergne
Region France
Timezone Europe/Paris (UTC+1.0)
Stats Elevation 1,089 ft / 332 m (AMSL)
Location 45.786712° 3.169967°
Runways 1
Magnetic Variation 0.979° E

METAR

LFLC 130930Z AUTO 18012KT CAVOK 03/M00 Q1015 TEMPO 18015G25KT

Decode

TAF

TAF LFLC 130800Z 1309/1409 18015KT CAVOK TEMPO 1309/1324 18015G25KT BKN050 PROB40 TEMPO 1309/1312 -RA BKN050 TEMPO 1315/1321 -RA OVC040 PROB40 TEMPO 1318/1321 4000 RA PROB30 TEMPO 1318/1324 21020G40KT BECMG 1400/1403 27015KT CAVOK PROB40 TEMPO 1400/1409 27020G40KT

Decode

Destination Runways

ID Width Length Bearing (true) Bearing (mag) Surface Threshold Offset Overrun Length
08 148 ft / 45 m 9,878 ft / 3,011 m 81.95° 80.97° Asphalt 0 ft / 0 m 0 ft / 0 m
26 148 ft / 45 m 9,878 ft / 3,011 m 261.98° 261.00° Asphalt 476 ft / 145 m 0 ft / 0 m

Approach Navaids

Runway Type Ident Frequency Range Bearing (true) Bearing (mag) Slope Elevation
26 Localiser CF 111.10 MHz 27 nm / 50 km 261.98° 261.00° - 1,089 ft / 332 m (AMSL)
26 Glidescope CF 111.10 MHz 27 nm / 50 km 261.98° 261.00° 3.00° 1,089 ft / 332 m (AMSL)
26 DME CF 111.10 MHz 27 nm / 50 km - - - 1,089 ft / 332 m (AMSL)

Popular Alternatives